createdAt,value
2024-02-27T00:02:24.898Z,84.53
2024-02-27T00:04:51.429Z,84.54
2024-02-27T00:07:18.230Z,84.69
2024-02-27T00:09:45.604Z,84.82
2024-02-27T00:12:12.466Z,83.96
2024-02-27T00:14:40.535Z,83.94
2024-02-27T00:17:07.179Z,83.81
2024-02-27T00:19:34.073Z,83.51
2024-02-27T00:22:00.825Z,84.27
2024-02-27T00:24:27.467Z,83.85
2024-02-27T00:26:54.160Z,83.91
2024-02-27T00:29:21.605Z,83.34
2024-02-27T00:31:49.541Z,82.87
2024-02-27T00:34:17.123Z,83.60
2024-02-27T00:36:43.959Z,83.56
2024-02-27T00:39:10.667Z,83.93
2024-02-27T00:41:40.296Z,83.91
2024-02-27T00:44:08.457Z,83.55
2024-02-27T00:46:35.125Z,83.65
2024-02-27T00:49:03.092Z,83.90
2024-02-27T00:51:29.743Z,83.67
2024-02-27T00:53:56.473Z,83.45
2024-02-27T00:56:23.169Z,83.67
2024-02-27T00:58:49.808Z,83.83
2024-02-27T01:01:16.566Z,83.82
2024-02-27T01:03:43.221Z,84.45
2024-02-27T01:06:11.456Z,83.46
2024-02-27T01:08:38.286Z,84.14
2024-02-27T01:11:05.064Z,83.58
2024-02-27T01:13:31.695Z,84.38
2024-02-27T01:15:58.327Z,83.33
2024-02-27T01:18:24.983Z,83.46
2024-02-27T01:20:51.688Z,83.30
2024-02-27T01:23:20.699Z,83.39
2024-02-27T01:25:47.633Z,83.38
2024-02-27T01:28:14.370Z,83.60
2024-02-27T01:30:41.021Z,83.49
2024-02-27T01:33:07.781Z,83.25
2024-02-27T01:35:34.567Z,83.31
2024-02-27T01:38:01.162Z,83.71
2024-02-27T01:40:29.060Z,84.09
2024-02-27T01:42:55.656Z,83.85
2024-02-27T01:45:23.390Z,83.68
2024-02-27T01:47:50.263Z,84.13
2024-02-27T01:50:18.491Z,83.77
2024-02-27T01:52:46.225Z,83.94
2024-02-27T01:55:13.986Z,83.68
2024-02-27T01:57:42.440Z,83.55
2024-02-27T02:00:15.618Z,84.38
2024-02-27T02:02:45.491Z,83.85
2024-02-27T02:05:12.744Z,83.82
2024-02-27T02:07:41.180Z,84.16
2024-02-27T02:10:11.455Z,83.80
2024-02-27T02:12:38.282Z,83.98
2024-02-27T02:15:07.840Z,83.33
2024-02-27T02:17:35.493Z,83.54
2024-02-27T02:20:06.205Z,84.34
2024-02-27T02:22:34.984Z,83.72
2024-02-27T02:25:02.295Z,84.18
2024-02-27T02:27:30.139Z,83.45
2024-02-27T02:29:57.430Z,83.25
2024-02-27T02:32:24.104Z,83.97
2024-02-27T02:34:50.735Z,83.52
2024-02-27T02:37:17.311Z,83.33
2024-02-27T02:39:45.300Z,83.47
2024-02-27T02:42:12.005Z,83.51
2024-02-27T02:44:38.653Z,83.48
2024-02-27T02:47:05.301Z,83.35
2024-02-27T02:49:32.260Z,83.57
2024-02-27T02:51:59.175Z,83.56
2024-02-27T02:54:25.833Z,83.24
2024-02-27T02:56:53.763Z,84.05
2024-02-27T02:59:22.341Z,83.43
2024-02-27T03:01:48.901Z,82.82
2024-02-27T03:04:15.456Z,82.63
2024-02-27T03:06:42.195Z,83.06
2024-02-27T03:09:09.535Z,83.68
2024-02-27T03:11:36.271Z,84.36
2024-02-27T03:14:04.471Z,83.22
2024-02-27T03:16:31.086Z,83.18
2024-02-27T03:18:57.807Z,84.15
2024-02-27T03:21:24.567Z,83.25
2024-02-27T03:23:51.142Z,83.75
2024-02-27T03:26:17.947Z,83.80
2024-02-27T03:28:44.529Z,83.78
2024-02-27T03:31:12.441Z,83.47
2024-02-27T03:33:39.069Z,83.87
2024-02-27T03:36:06.576Z,83.25
2024-02-27T03:38:33.333Z,82.71
2024-02-27T03:40:59.986Z,82.68
2024-02-27T03:43:26.555Z,83.46
2024-02-27T03:45:53.225Z,83.38
2024-02-27T03:48:21.489Z,83.08
2024-02-27T03:50:48.178Z,83.37
2024-02-27T03:53:14.804Z,83.69
2024-02-27T03:55:41.517Z,83.15
2024-02-27T03:58:08.162Z,83.46
2024-02-27T04:00:34.920Z,83.36
2024-02-27T04:03:01.644Z,83.23
2024-02-27T04:05:29.776Z,83.36
2024-02-27T04:07:56.338Z,82.90
2024-02-27T04:10:22.996Z,83.21
2024-02-27T04:12:49.631Z,83.26
2024-02-27T04:15:16.369Z,82.96
2024-02-27T04:17:42.982Z,82.92
2024-02-27T04:20:10.541Z,83.30
2024-02-27T04:22:38.555Z,83.11
2024-02-27T04:25:06.083Z,83.46
2024-02-27T04:27:32.605Z,83.87
2024-02-27T04:29:59.495Z,83.46
2024-02-27T04:32:26.117Z,83.72
2024-02-27T04:34:52.741Z,83.77
2024-02-27T04:37:19.354Z,84.50
2024-02-27T04:39:47.435Z,83.93
2024-02-27T04:42:14.192Z,84.23
2024-02-27T04:44:40.783Z,83.84
2024-02-27T04:47:07.391Z,83.63
2024-02-27T04:49:34.382Z,83.72
2024-02-27T04:52:01.040Z,83.75
2024-02-27T04:54:27.744Z,83.60
2024-02-27T04:56:55.787Z,83.55
2024-02-27T04:59:22.478Z,83.20
2024-02-27T05:01:51.672Z,83.69
2024-02-27T05:04:19.942Z,83.11
2024-02-27T05:06:46.723Z,83.95
2024-02-27T05:09:13.623Z,83.96
2024-02-27T05:11:40.308Z,83.94
2024-02-27T05:14:08.357Z,84.15
2024-02-27T05:16:34.951Z,84.26
2024-02-27T05:19:01.680Z,84.34
2024-02-27T05:21:29.365Z,83.63
2024-02-27T05:23:56.157Z,83.79
2024-02-27T05:26:22.708Z,84.20
2024-02-27T05:28:49.561Z,84.21
2024-02-27T05:31:25.366Z,83.99
2024-02-27T05:33:52.268Z,84.81
2024-02-27T05:36:19.868Z,84.34
2024-02-27T05:38:46.354Z,84.06
2024-02-27T05:41:13.343Z,83.96
2024-02-27T05:43:40.175Z,83.88
2024-02-27T05:46:07.251Z,83.72
2024-02-27T05:48:35.624Z,83.55
2024-02-27T05:51:02.225Z,84.14
2024-02-27T05:53:31.215Z,83.58
2024-02-27T05:55:58.134Z,83.47
2024-02-27T05:58:25.131Z,83.73
2024-02-27T06:00:52.411Z,84.03
2024-02-27T06:03:19.148Z,83.76
2024-02-27T06:05:47.310Z,84.10
2024-02-27T06:08:16.689Z,84.29
2024-02-27T06:10:43.310Z,84.31
2024-02-27T06:13:09.938Z,83.97
2024-02-27T06:15:36.612Z,84.47
2024-02-27T06:18:04.232Z,83.70
2024-02-27T06:20:49.453Z,83.62
2024-02-27T06:23:18.103Z,83.79
2024-02-27T06:25:44.773Z,84.44
2024-02-27T06:28:11.357Z,84.42
2024-02-27T06:30:38.034Z,84.11
2024-02-27T06:33:05.232Z,84.17
2024-02-27T06:35:31.882Z,83.67
2024-02-27T06:37:58.491Z,83.44
2024-02-27T06:40:26.613Z,84.05
2024-02-27T06:42:53.162Z,83.64
2024-02-27T06:45:20.440Z,84.28
2024-02-27T06:47:47.592Z,84.14
2024-02-27T06:50:14.400Z,84.04
2024-02-27T06:52:41.333Z,83.71
2024-02-27T06:55:07.896Z,83.82
2024-02-27T06:57:35.921Z,84.41
2024-02-27T07:00:02.920Z,83.71
2024-02-27T07:02:29.571Z,84.24
2024-02-27T07:04:56.131Z,83.83
2024-02-27T07:07:22.807Z,83.90
2024-02-27T07:09:49.481Z,83.63
2024-02-27T07:12:16.095Z,84.08
2024-02-27T07:14:44.108Z,83.50
2024-02-27T07:17:10.790Z,83.58
2024-02-27T07:19:37.712Z,83.91
2024-02-27T07:22:05.001Z,84.09
2024-02-27T07:24:31.599Z,84.22
2024-02-27T07:26:58.279Z,84.54
2024-02-27T07:29:24.826Z,85.18
2024-02-27T07:31:53.480Z,84.58
2024-02-27T07:34:22.969Z,84.13
2024-02-27T07:36:50.238Z,84.55
2024-02-27T07:39:16.899Z,83.86
2024-02-27T07:41:44.517Z,84.00
2024-02-27T07:44:10.958Z,83.64
2024-02-27T07:46:37.538Z,83.82
2024-02-27T07:49:05.522Z,84.00
2024-02-27T07:51:34.076Z,84.53
2024-02-27T07:54:01.211Z,83.42
2024-02-27T07:56:31.407Z,83.97
2024-02-27T07:58:58.365Z,82.62
2024-02-27T08:01:27.788Z,84.16
2024-02-27T08:03:54.733Z,84.03
2024-02-27T08:06:24.182Z,83.86
2024-02-27T08:08:53.487Z,83.33
2024-02-27T08:11:20.144Z,83.79
2024-02-27T08:13:46.796Z,83.53
2024-02-27T08:16:13.505Z,83.11
2024-02-27T08:18:40.268Z,82.92
2024-02-27T08:21:06.997Z,82.29
2024-02-27T08:23:35.578Z,82.10
2024-02-27T08:26:02.951Z,82.10
2024-02-27T08:28:29.566Z,81.93
2024-02-27T08:30:56.250Z,82.51
2024-02-27T08:33:23.046Z,82.67
2024-02-27T08:35:49.819Z,81.43
2024-02-27T08:38:16.361Z,80.87
2024-02-27T08:40:45.751Z,80.93
2024-02-27T08:43:15.214Z,80.97
2024-02-27T08:45:42.438Z,80.82
2024-02-27T08:48:09.143Z,80.77
2024-02-27T08:50:35.752Z,81.53
2024-02-27T08:53:02.342Z,81.92
2024-02-27T08:55:31.109Z,80.90
2024-02-27T08:57:59.071Z,80.18
2024-02-27T09:00:26.831Z,80.35
2024-02-27T09:02:53.408Z,79.90
2024-02-27T09:05:19.946Z,80.33
2024-02-27T09:07:46.539Z,81.33
2024-02-27T09:10:13.225Z,80.17
2024-02-27T09:12:40.587Z,79.63
2024-02-27T09:15:09.608Z,80.71
2024-02-27T09:17:36.436Z,80.26
2024-02-27T09:20:03.689Z,79.80
2024-02-27T09:22:32.149Z,79.21
2024-02-27T09:24:58.780Z,79.50
2024-02-27T09:27:25.341Z,80.00
2024-02-27T09:29:52.574Z,79.74
2024-02-27T09:32:24.205Z,80.69
2024-02-27T09:34:51.875Z,80.04
2024-02-27T09:37:19.606Z,81.02
2024-02-27T09:39:54.239Z,80.45
2024-02-27T09:42:34.528Z,81.13
2024-02-27T09:45:05.495Z,80.39
2024-02-27T09:47:35.469Z,80.29
2024-02-27T09:50:02.619Z,80.07
2024-02-27T09:52:29.950Z,79.62
2024-02-27T09:54:57.903Z,79.88
2024-02-27T09:57:25.340Z,79.60
2024-02-27T09:59:52.858Z,79.71
2024-02-27T10:02:19.761Z,79.74
2024-02-27T10:04:47.825Z,79.57
2024-02-27T10:07:16.102Z,78.41
2024-02-27T10:09:45.509Z,79.66
2024-02-27T10:12:13.780Z,79.68
2024-02-27T10:14:40.952Z,79.57
2024-02-27T10:17:08.800Z,79.30
2024-02-27T10:19:36.461Z,79.52
2024-02-27T10:22:05.163Z,79.90
2024-02-27T10:24:31.935Z,79.85
2024-02-27T10:26:59.583Z,80.70
2024-02-27T10:29:27.601Z,79.96
2024-02-27T10:31:54.626Z,79.25
2024-02-27T10:34:21.650Z,79.07
2024-02-27T10:36:57.275Z,78.76
2024-02-27T10:39:25.410Z,79.47
2024-02-27T10:41:52.609Z,79.19
2024-02-27T10:44:19.493Z,79.58
2024-02-27T10:46:47.282Z,79.68
2024-02-27T10:49:14.428Z,79.40
2024-02-27T10:51:42.809Z,78.69
2024-02-27T10:54:09.577Z,79.23
2024-02-27T10:56:37.560Z,79.69
2024-02-27T10:59:05.685Z,79.65
2024-02-27T11:01:33.574Z,79.38
2024-02-27T11:04:04.356Z,79.05
2024-02-27T11:06:31.307Z,78.58
2024-02-27T11:09:04.508Z,79.42
2024-02-27T11:11:31.641Z,78.77
2024-02-27T11:14:01.902Z,79.81
2024-02-27T11:16:29.774Z,79.83
2024-02-27T11:19:00.764Z,79.00
2024-02-27T11:21:29.006Z,79.24
2024-02-27T11:23:55.675Z,79.26
2024-02-27T11:26:22.815Z,79.32
2024-02-27T11:28:50.793Z,78.47
2024-02-27T11:31:22.158Z,78.24
2024-02-27T11:33:49.808Z,77.53
2024-02-27T11:36:16.733Z,77.97
2024-02-27T11:38:44.485Z,78.38
2024-02-27T11:41:13.936Z,77.30
2024-02-27T11:43:40.660Z,78.85
2024-02-27T11:46:36.925Z,78.36
2024-02-27T11:49:04.969Z,77.96
2024-02-27T11:51:34.193Z,77.37
2024-02-27T11:54:00.918Z,76.95
2024-02-27T11:56:27.915Z,76.43
2024-02-27T11:58:54.775Z,76.78
2024-02-27T12:01:23.384Z,76.93
2024-02-27T12:03:52.246Z,77.60
2024-02-27T12:06:19.292Z,77.67
2024-02-27T12:08:47.294Z,77.91
2024-02-27T12:11:15.488Z,76.98
2024-02-27T12:13:43.556Z,76.72
2024-02-27T12:16:10.175Z,76.71
2024-02-27T12:18:36.992Z,76.98
2024-02-27T12:21:05.788Z,77.70
2024-02-27T12:23:32.750Z,76.43
2024-02-27T12:25:59.599Z,77.88
2024-02-27T12:28:26.464Z,77.91
2024-02-27T12:30:53.080Z,78.06
2024-02-27T12:33:20.064Z,77.02
2024-02-27T12:35:46.938Z,77.19
2024-02-27T12:38:15.169Z,75.10
2024-02-27T12:40:42.764Z,74.99
2024-02-27T12:43:09.634Z,75.68
2024-02-27T12:45:36.313Z,75.91
2024-02-27T12:48:04.466Z,77.14
2024-02-27T12:50:31.530Z,75.43
2024-02-27T12:53:06.879Z,74.17
2024-02-27T12:55:40.705Z,75.69
2024-02-27T12:58:07.541Z,77.40
2024-02-27T13:00:34.749Z,77.43
2024-02-27T13:03:01.598Z,78.33
2024-02-27T13:05:28.765Z,77.26
2024-02-27T13:07:56.903Z,77.07
2024-02-27T13:10:23.921Z,76.08
2024-02-27T13:13:09.861Z,75.31
2024-02-27T13:15:36.939Z,75.49
2024-02-27T13:18:04.220Z,75.61
2024-02-27T13:20:31.020Z,75.15
2024-02-27T13:23:02.911Z,74.76
2024-02-27T13:25:32.692Z,74.76
2024-02-27T13:27:59.230Z,75.87
2024-02-27T13:30:27.317Z,74.91
2024-02-27T13:32:53.950Z,74.50
2024-02-27T13:35:20.807Z,75.51
2024-02-27T13:37:48.216Z,74.96
2024-02-27T13:40:14.802Z,75.27
2024-02-27T13:42:41.429Z,75.29
2024-02-27T13:45:08.719Z,74.89
2024-02-27T13:47:36.732Z,74.71
2024-02-27T13:50:03.605Z,74.43
2024-02-27T13:52:30.268Z,75.03
2024-02-27T13:54:58.011Z,74.91
2024-02-27T13:57:26.167Z,74.13
2024-02-27T13:59:53.884Z,73.82
2024-02-27T14:02:20.500Z,75.59
2024-02-27T14:04:48.470Z,75.12
2024-02-27T14:07:15.240Z,73.42
2024-02-27T14:09:44.321Z,73.83
2024-02-27T14:12:12.186Z,73.19
2024-02-27T14:14:39.067Z,72.76
2024-02-27T14:17:06.044Z,73.42
2024-02-27T14:19:32.744Z,73.48
2024-02-27T14:22:00.755Z,73.45
2024-02-27T14:24:27.405Z,72.62
2024-02-27T14:26:54.028Z,71.62
2024-02-27T14:29:20.943Z,72.23
2024-02-27T14:31:47.513Z,73.39
2024-02-27T14:34:15.543Z,73.69
2024-02-27T14:36:42.455Z,73.59
2024-02-27T14:39:10.491Z,73.31
2024-02-27T14:41:38.215Z,72.39
2024-02-27T14:44:08.741Z,72.34
2024-02-27T14:46:35.873Z,71.55
2024-02-27T14:49:02.737Z,72.47
2024-02-27T14:51:30.065Z,72.87
2024-02-27T14:53:56.671Z,72.73
2024-02-27T14:56:24.679Z,73.62
2024-02-27T14:58:52.174Z,72.64
2024-02-27T15:01:18.830Z,73.18
2024-02-27T15:03:45.676Z,72.71
2024-02-27T15:06:12.923Z,72.95
2024-02-27T15:08:39.858Z,72.64
2024-02-27T15:11:06.557Z,71.73
2024-02-27T15:13:34.523Z,71.79
2024-02-27T15:16:01.074Z,72.24
2024-02-27T15:18:27.814Z,73.07
2024-02-27T15:20:57.293Z,73.61
2024-02-27T15:23:24.158Z,73.69
2024-02-27T15:25:50.735Z,72.73
2024-02-27T15:28:17.943Z,73.48
2024-02-27T15:30:45.953Z,73.11
2024-02-27T15:33:12.740Z,73.70
2024-02-27T15:35:42.051Z,74.75
2024-02-27T15:38:09.964Z,75.59
2024-02-27T15:40:36.536Z,75.36
2024-02-27T15:43:03.215Z,74.50
2024-02-27T15:45:29.770Z,74.57
2024-02-27T15:47:57.839Z,74.10
2024-02-27T15:50:24.585Z,74.19
2024-02-27T15:52:51.224Z,74.64
2024-02-27T15:55:18.355Z,73.85
2024-02-27T15:57:45.077Z,73.79
2024-02-27T16:00:13.008Z,74.29
2024-02-27T16:02:39.652Z,75.12
2024-02-27T16:05:10.385Z,74.63
2024-02-27T16:07:41.244Z,74.03
2024-02-27T16:10:09.821Z,74.47
2024-02-27T16:12:38.916Z,75.05
2024-02-27T16:15:07.422Z,75.48
2024-02-27T16:17:34.290Z,75.25
2024-02-27T16:20:01.125Z,74.47
2024-02-27T16:22:29.769Z,75.77
2024-02-27T16:24:56.582Z,77.47
2024-02-27T16:27:23.313Z,77.36
2024-02-27T16:29:49.948Z,76.53
2024-02-27T16:32:16.716Z,76.06
2024-02-27T16:34:43.435Z,75.96
2024-02-27T16:37:10.956Z,75.74
2024-02-27T16:39:38.880Z,76.35
2024-02-27T16:42:05.835Z,76.30
2024-02-27T16:44:32.501Z,76.89
2024-02-27T16:46:59.176Z,77.34
2024-02-27T16:49:25.918Z,78.66
2024-02-27T16:51:52.747Z,78.71
2024-02-27T16:54:19.471Z,77.97
2024-02-27T16:56:47.428Z,77.49
2024-02-27T16:59:13.998Z,77.33
2024-02-27T17:01:40.785Z,77.93
2024-02-27T17:04:07.625Z,78.31
2024-02-27T17:06:34.559Z,78.13
2024-02-27T17:09:01.134Z,78.59
2024-02-27T17:11:27.722Z,78.48
2024-02-27T17:13:55.657Z,78.43
2024-02-27T17:16:22.242Z,79.12
2024-02-27T17:18:49.039Z,78.96
2024-02-27T17:21:15.850Z,78.65
2024-02-27T17:23:42.476Z,78.79
2024-02-27T17:26:11.072Z,78.70
2024-02-27T17:28:37.681Z,80.04
2024-02-27T17:31:05.965Z,79.27
2024-02-27T17:33:32.915Z,79.46
2024-02-27T17:36:00.600Z,80.34
2024-02-27T17:38:27.645Z,81.17
2024-02-27T17:40:54.197Z,81.54
2024-02-27T17:43:20.862Z,81.25
2024-02-27T17:45:49.795Z,81.38
2024-02-27T17:48:18.085Z,81.24
2024-02-27T17:50:44.750Z,82.13
2024-02-27T17:53:11.367Z,81.78
2024-02-27T17:55:38.112Z,81.88
2024-02-27T17:58:06.814Z,82.54
2024-02-27T18:00:33.814Z,81.89
2024-02-27T18:03:00.797Z,81.50
2024-02-27T18:05:28.933Z,81.72
2024-02-27T18:07:55.606Z,81.77
2024-02-27T18:10:22.156Z,81.42
2024-02-27T18:12:48.869Z,80.95
2024-02-27T18:15:20.024Z,80.91
2024-02-27T18:17:49.448Z,82.01
2024-02-27T18:20:16.809Z,82.67
2024-02-27T18:22:45.283Z,82.14
2024-02-27T18:25:13.154Z,82.06
2024-02-27T18:27:40.465Z,82.39
2024-02-27T18:30:09.208Z,81.29
2024-02-27T18:32:38.192Z,82.15
2024-02-27T18:35:05.650Z,82.75
2024-02-27T18:37:32.313Z,83.14
2024-02-27T18:40:01.012Z,82.20
2024-02-27T18:42:27.716Z,82.13
2024-02-27T18:44:54.370Z,82.29
2024-02-27T18:47:21.245Z,82.25
2024-02-27T18:49:49.465Z,82.35
2024-02-27T18:52:16.950Z,81.96
2024-02-27T18:54:43.903Z,83.82
2024-02-27T18:57:12.008Z,84.55
2024-02-27T18:59:38.690Z,85.47
2024-02-27T19:02:05.585Z,85.36
2024-02-27T19:04:32.226Z,85.13
2024-02-27T19:06:59.365Z,85.70
2024-02-27T19:09:26.539Z,83.30
2024-02-27T19:11:56.380Z,83.71
2024-02-27T19:14:24.815Z,83.28
2024-02-27T19:16:51.442Z,83.09
2024-02-27T19:19:18.484Z,83.26
2024-02-27T19:21:45.183Z,83.29
2024-02-27T19:24:11.927Z,82.79
2024-02-27T19:26:38.549Z,81.80
2024-02-27T19:29:05.285Z,82.67
2024-02-27T19:31:33.238Z,82.74
2024-02-27T19:34:00.020Z,83.11
2024-02-27T19:36:26.750Z,83.48
2024-02-27T19:38:53.382Z,84.44
2024-02-27T19:41:19.964Z,84.40
2024-02-27T19:43:46.678Z,83.71
2024-02-27T19:46:14.996Z,84.20
2024-02-27T19:48:43.067Z,83.21
2024-02-27T19:51:12.958Z,82.73
2024-02-27T19:53:39.645Z,82.60
2024-02-27T19:56:06.454Z,83.26
2024-02-27T19:58:33.123Z,83.48
2024-02-27T20:00:59.819Z,83.13
2024-02-27T20:03:26.624Z,83.29
2024-02-27T20:05:54.640Z,82.98
2024-02-27T20:08:21.793Z,83.72
2024-02-27T20:10:48.437Z,84.26
2024-02-27T20:13:20.128Z,85.00
2024-02-27T20:15:47.203Z,84.23
2024-02-27T20:18:13.794Z,84.39
2024-02-27T20:20:41.786Z,84.08
2024-02-27T20:23:10.849Z,83.81
2024-02-27T20:25:37.518Z,82.99
2024-02-27T20:28:04.650Z,82.49
2024-02-27T20:30:31.405Z,83.04
2024-02-27T20:32:58.251Z,83.88
2024-02-27T20:35:24.863Z,84.30
2024-02-27T20:37:52.496Z,84.82
2024-02-27T20:40:21.543Z,85.18
2024-02-27T20:42:48.243Z,84.20
2024-02-27T20:45:15.008Z,83.66
2024-02-27T20:47:42.081Z,83.45
2024-02-27T20:50:11.728Z,83.81
2024-02-27T20:52:38.690Z,84.75
2024-02-27T20:55:06.210Z,83.94
2024-02-27T20:57:34.238Z,84.29
2024-02-27T21:00:01.036Z,83.83
2024-02-27T21:02:29.836Z,84.12
2024-02-27T21:04:57.688Z,85.08
2024-02-27T21:07:25.203Z,85.69
2024-02-27T21:09:51.854Z,85.38
2024-02-27T21:12:18.565Z,84.27
2024-02-27T21:14:46.517Z,84.50
2024-02-27T21:17:13.183Z,84.18
2024-02-27T21:19:39.877Z,84.35
2024-02-27T21:22:06.521Z,83.90
2024-02-27T21:24:33.170Z,84.42
2024-02-27T21:26:59.778Z,83.94
2024-02-27T21:29:26.339Z,83.67
2024-02-27T21:31:54.284Z,83.58
2024-02-27T21:34:20.955Z,82.88
2024-02-27T21:36:47.670Z,84.20
2024-02-27T21:39:14.591Z,84.79
2024-02-27T21:41:41.711Z,84.88
2024-02-27T21:44:08.465Z,85.51
2024-02-27T21:46:35.701Z,84.84
2024-02-27T21:49:03.796Z,84.55
2024-02-27T21:51:30.490Z,84.99
2024-02-27T21:53:57.118Z,84.21
2024-02-27T21:56:23.774Z,84.43
2024-02-27T21:58:50.352Z,84.47
2024-02-27T22:01:17.049Z,84.43
2024-02-27T22:03:45.211Z,84.38
2024-02-27T22:06:13.219Z,83.72
2024-02-27T22:08:40.876Z,83.54
2024-02-27T22:11:08.493Z,83.46
2024-02-27T22:13:35.419Z,83.93
2024-02-27T22:16:02.143Z,84.51
2024-02-27T22:18:29.289Z,84.93
2024-02-27T22:20:55.888Z,84.00
2024-02-27T22:23:23.874Z,83.62
2024-02-27T22:25:52.704Z,84.73
2024-02-27T22:28:19.519Z,84.86
2024-02-27T22:30:46.269Z,85.40
2024-02-27T22:33:13.426Z,84.80
2024-02-27T22:35:40.774Z,84.63
2024-02-27T22:38:09.401Z,85.10
2024-02-27T22:40:38.552Z,84.95
2024-02-27T22:43:05.128Z,84.69
2024-02-27T22:45:31.758Z,84.82
2024-02-27T22:47:58.419Z,85.36
2024-02-27T22:50:25.173Z,85.55
2024-02-27T22:52:51.808Z,85.76
2024-02-27T22:55:18.380Z,85.83
2024-02-27T22:57:46.441Z,84.87
2024-02-27T23:00:16.443Z,84.61
2024-02-27T23:02:43.029Z,84.61
2024-02-27T23:05:10.356Z,85.06
2024-02-27T23:07:37.300Z,84.49
2024-02-27T23:10:07.763Z,85.02
2024-02-27T23:12:34.464Z,85.00
2024-02-27T23:15:02.495Z,85.57
2024-02-27T23:17:29.056Z,85.35
2024-02-27T23:19:55.672Z,84.61
2024-02-27T23:22:22.209Z,85.17
2024-02-27T23:24:48.846Z,85.04
2024-02-27T23:27:15.595Z,84.89
2024-02-27T23:29:42.167Z,84.16
2024-02-27T23:32:10.156Z,84.64
2024-02-27T23:34:36.679Z,84.09
2024-02-27T23:37:03.748Z,83.78
2024-02-27T23:39:30.394Z,83.60
2024-02-27T23:41:56.953Z,84.72
2024-02-27T23:44:23.621Z,83.88
2024-02-27T23:46:50.210Z,84.02
2024-02-27T23:49:18.095Z,84.64
2024-02-27T23:51:44.705Z,84.33
2024-02-27T23:54:11.372Z,84.77
2024-02-27T23:56:37.935Z,84.50
2024-02-27T23:59:04.557Z,84.00
